Time;durP1;ratioP1;P1;durP2;ratioP2;P2;SDS_P1;SDS_P2;PMS_P1;PMS_P2;Temp;Humidity;BMP_temperature;BMP_pressure;BME280_temperature;BME280_humidity;BME280_pressure;Samples;Min_cycle;Max_cycle;Signal;HPM_P1;HPM_P2
2022/07/23 00:00:46;;;;;;;29.97;26.87;;;;;;;20.45;nan;99090.16;2074133;28;20482;-75
2022/07/23 00:01:47;;;;;;;31.10;28.27;;;;;;;20.40;nan;99095.84;2065283;28;20197;-75
2022/07/23 00:02:52;;;;;;;30.70;27.80;;;;;;;20.37;nan;99093.88;2065588;28;20438;-75
2022/07/23 00:03:54;;;;;;;31.73;28.73;;;;;;;20.31;nan;99099.56;2074243;28;20196;-75
2022/07/23 00:04:56;;;;;;;37.50;30.90;;;;;;;20.25;nan;99092.91;2074347;28;20502;-74
2022/07/23 00:05:56;;;;;;;30.93;27.87;;;;;;;20.25;nan;99095.59;2073531;28;20504;-74
2022/07/23 00:06:59;;;;;;;35.33;31.70;;;;;;;20.27;nan;99098.75;2074356;28;20412;-76
2022/07/23 00:08:00;;;;;;;35.60;31.90;;;;;;;20.30;nan;99099.94;2074346;28;20268;-75
2022/07/23 00:09:01;;;;;;;34.03;30.50;;;;;;;20.29;nan;99107.28;2074286;28;20427;-75
2022/07/23 00:10:07;;;;;;;34.90;31.20;;;;;;;20.31;nan;99094.16;2065027;28;20208;-74
2022/07/23 00:11:09;;;;;;;35.50;31.77;;;;;;;20.33;nan;99091.88;2065825;28;20460;-75
2022/07/23 00:12:10;;;;;;;34.67;31.07;;;;;;;20.37;nan;99102.00;2074075;28;20921;-75
2022/07/23 00:13:11;;;;;;;33.87;30.67;;;;;;;20.40;nan;99090.44;2074078;28;20839;-75
2022/07/23 00:14:12;;;;;;;34.70;31.37;;;;;;;20.41;nan;99089.28;2074178;28;20231;-75
2022/07/23 00:15:13;;;;;;;33.10;29.80;;;;;;;20.41;nan;99089.28;2074021;28;20454;-74
2022/07/23 00:16:14;;;;;;;36.57;31.53;;;;;;;20.40;nan;99091.22;2073944;28;20259;-75
2022/07/23 00:17:17;;;;;;;35.57;31.87;;;;;;;20.40;nan;99093.13;2065229;28;20451;-74
2022/07/23 00:18:18;;;;;;;36.03;31.17;;;;;;;20.41;nan;99094.69;2065888;28;20200;-75
2022/07/23 00:19:21;;;;;;;33.43;29.90;;;;;;;20.42;nan;99085.44;2074190;28;20512;-75
2022/07/23 00:20:23;;;;;;;33.50;30.23;;;;;;;20.45;nan;99090.94;2074048;28;20541;-75
2022/07/23 00:21:24;;;;;;;32.97;29.97;;;;;;;20.46;nan;99086.31;2073593;28;20459;-74
2022/07/23 00:22:28;;;;;;;35.50;31.90;;;;;;;20.45;nan;99092.88;2065260;28;20444;-74
2022/07/23 00:23:30;;;;;;;39.87;32.47;;;;;;;20.44;nan;99089.41;2065702;28;20285;-75
2022/07/23 00:24:34;;;;;;;42.20;33.60;;;;;;;20.44;nan;99085.91;2065269;28;20440;-75
2022/07/23 00:25:35;;;;;;;35.87;31.53;;;;;;;20.42;nan;99088.16;2057141;28;20453;-75
2022/07/23 00:26:38;;;;;;;34.97;31.67;;;;;;;20.43;nan;99085.13;2065481;28;20424;-75
2022/07/23 00:27:38;;;;;;;35.20;31.53;;;;;;;20.40;nan;99087.72;2074127;28;20809;-75
2022/07/23 00:28:40;;;;;;;37.03;32.00;;;;;;;20.39;nan;99089.66;2073991;28;20431;-74
2022/07/23 00:29:40;;;;;;;36.23;32.60;;;;;;;20.40;nan;99090.44;2065607;28;20722;-75
2022/07/23 00:30:44;;;;;;;36.53;32.60;;;;;;;20.42;nan;99096.28;2065329;28;20432;-75
2022/07/23 00:31:47;;;;;;;35.47;31.77;;;;;;;20.40;nan;99101.28;2065221;28;20887;-75
2022/07/23 00:32:52;;;;;;;33.87;30.30;;;;;;;20.36;nan;99095.00;2064887;28;20898;-74
2022/07/23 00:33:56;;;;;;;33.80;30.43;;;;;;;20.36;nan;99101.22;2065248;28;20483;-75
2022/07/23 00:34:58;;;;;;;33.90;30.37;;;;;;;20.35;nan;99105.06;2065669;28;20428;-75
2022/07/23 00:35:58;;;;;;;33.47;30.07;;;;;;;20.35;nan;99110.50;2073679;28;20466;-74
2022/07/23 00:37:00;;;;;;;33.23;29.70;;;;;;;20.35;nan;99101.59;2074223;28;20408;-75
2022/07/23 00:38:03;;;;;;;32.70;29.40;;;;;;;20.36;nan;99117.47;2065410;28;20340;-75
2022/07/23 00:39:07;;;;;;;33.57;29.27;;;;;;;20.34;nan;99108.94;2057466;28;20445;-75
2022/07/23 00:40:10;;;;;;;33.23;29.00;;;;;;;20.34;nan;99106.22;2065223;28;20447;-75
2022/07/23 00:41:12;;;;;;;32.43;29.10;;;;;;;20.33;nan;99113.56;2065543;28;20427;-75
2022/07/23 00:42:13;;;;;;;31.13;27.90;;;;;;;20.30;nan;99108.84;2065516;28;21049;-75
2022/07/23 00:43:15;;;;;;;32.97;29.50;;;;;;;20.30;nan;99108.84;2065245;28;20824;-75
2022/07/23 00:44:17;;;;;;;31.57;28.60;;;;;;;20.29;nan;99112.69;2065137;28;20311;-75
2022/07/23 00:45:21;;;;;;;33.60;30.10;;;;;;;20.26;nan;99108.00;2065458;28;20427;-76
2022/07/23 00:46:24;;;;;;;38.63;31.03;;;;;;;20.25;nan;99102.97;2073951;28;20458;-76
2022/07/23 00:47:28;;;;;;;35.70;31.03;;;;;;;20.25;nan;99101.03;2065156;28;20436;-76
2022/07/23 00:48:29;;;;;;;34.17;30.63;;;;;;;20.23;nan;99108.72;2065697;28;20838;-76
2022/07/23 00:49:31;;;;;;;33.20;29.83;;;;;;;20.22;nan;99111.78;2065177;28;20432;-76
2022/07/23 00:50:32;;;;;;;32.70;29.27;;;;;;;20.19;nan;99113.28;2065344;28;20329;-75
2022/07/23 00:51:33;;;;;;;34.73;31.13;;;;;;;20.14;nan;99110.88;2073576;28;20459;-76
2022/07/23 00:52:39;;;;;;;36.40;31.07;;;;;;;20.11;nan;99114.31;2073882;28;20192;-76
2022/07/23 00:53:46;;;;;;;33.97;30.60;;;;;;;20.07;nan;99116.16;2065222;28;20443;-76
2022/07/23 00:54:47;;;;;;;40.57;32.40;;;;;;;20.00;nan;99113.31;2065176;28;20491;-76
2022/07/23 00:55:49;;;;;;;35.37;31.83;;;;;;;20.00;nan;99122.22;2065224;28;20431;-76
2022/07/23 00:56:50;;;;;;;35.63;31.70;;;;;;;20.00;nan;99116.03;2065237;28;20228;-75
2022/07/23 00:57:52;;;;;;;35.30;31.73;;;;;;;20.01;nan;99120.28;2065342;28;20424;-75
2022/07/23 00:58:53;;;;;;;34.67;31.10;;;;;;;19.99;nan;99119.88;2073933;28;20611;-75
2022/07/23 00:59:55;;;;;;;33.53;29.97;;;;;;;19.96;nan;99112.44;2065093;28;20436;-75
2022/07/23 01:00:56;;;;;;;35.23;31.83;;;;;;;19.91;nan;99113.53;2065198;28;20213;-75
2022/07/23 01:01:58;;;;;;;34.73;31.43;;;;;;;19.89;nan;99115.78;2065228;28;20474;-76
2022/07/23 01:02:59;;;;;;;35.43;31.90;;;;;;;19.89;nan;99112.31;2065118;28;20193;-77
2022/07/23 01:04:01;;;;;;;33.93;30.60;;;;;;;19.89;nan;99117.72;2065359;28;20424;-78
2022/07/23 01:05:02;;;;;;;39.47;32.43;;;;;;;19.92;nan;99115.09;2074210;28;20200;-79
2022/07/23 01:06:03;;;;;;;34.37;31.03;;;;;;;19.92;nan;99120.50;2066203;28;21010;-80
2022/07/23 01:07:05;;;;;;;34.90;31.27;;;;;;;19.93;nan;99118.59;2067032;28;20408;-78
2022/07/23 01:08:07;;;;;;;35.27;31.20;;;;;;;19.92;nan;99112.38;2075904;28;20485;-77
2022/07/23 01:09:09;;;;;;;35.77;32.00;;;;;;;19.92;nan;99119.72;2066772;28;20942;-75
2022/07/23 01:11:26;;;;;;;34.90;31.50;;;;;;;19.91;nan;99112.75;2074390;28;20472;-74
2022/07/23 01:12:27;;;;;;;34.37;30.87;;;;;;;19.90;nan;99114.69;2066667;28;20889;-74
2022/07/23 01:13:29;;;;;;;42.57;31.43;;;;;;;19.91;nan;99118.16;2066936;28;20439;-74
2022/07/23 01:14:30;;;;;;;37.37;29.97;;;;;;;19.87;nan;99112.66;2066567;28;20532;-74
2022/07/23 01:15:32;;;;;;;34.33;29.60;;;;;;;19.86;nan;99119.22;2066557;28;20502;-74
2022/07/23 01:16:33;;;;;;;34.37;30.83;;;;;;;19.85;nan;99112.25;2066652;28;20197;-74
2022/07/23 01:17:35;;;;;;;35.37;31.30;;;;;;;19.83;nan;99109.13;2058567;28;20437;-74
2022/07/23 01:18:36;;;;;;;34.83;31.03;;;;;;;19.83;nan;99109.13;2066988;28;20193;-74
2022/07/23 01:19:39;;;;;;;35.93;32.07;;;;;;;19.78;nan;99103.97;2066601;28;20480;-75
2022/07/23 01:20:40;;;;;;;34.47;30.87;;;;;;;19.77;nan;99108.59;2058849;28;20197;-75
2022/07/23 01:21:46;;;;;;;34.70;31.30;;;;;;;19.76;nan;99111.66;2058404;28;20460;-76
2022/07/23 01:22:48;;;;;;;34.50;31.10;;;;;;;19.74;nan;99109.31;2067247;28;20435;-76
2022/07/23 01:23:49;;;;;;;36.37;31.40;;;;;;;19.72;nan;99108.91;2066284;28;20471;-76
2022/07/23 01:24:51;;;;;;;34.50;29.63;;;;;;;19.70;nan;99107.66;2058668;28;20452;-77
2022/07/23 01:25:57;;;;;;;33.93;30.53;;;;;;;19.67;nan;99103.75;2059230;28;20445;-77
2022/07/23 01:27:01;;;;;;;34.70;30.97;;;;;;;19.63;nan;99105.59;2066670;28;20455;-76
2022/07/23 01:28:04;;;;;;;34.50;30.93;;;;;;;19.57;nan;99098.13;2066774;28;20443;-75
2022/07/23 01:29:06;;;;;;;35.30;31.83;;;;;;;19.59;nan;99099.34;2066537;28;20448;-74
2022/07/23 01:30:09;;;;;;;37.47;30.90;;;;;;;19.56;nan;99096.53;2058649;28;20978;-74
2022/07/23 01:31:09;;;;;;;34.60;31.20;;;;;;;19.55;nan;99098.47;2066715;28;21085;-75
2022/07/23 01:32:11;;;;;;;34.53;30.70;;;;;;;19.53;nan;99099.94;2066560;28;20817;-75
2022/07/23 01:33:12;;;;;;;34.87;31.13;;;;;;;19.52;nan;99106.47;2066549;28;20228;-76
2022/07/23 01:34:15;;;;;;;36.60;31.37;;;;;;;19.51;nan;99107.63;2066522;28;20444;-76
2022/07/23 01:35:18;;;;;;;32.93;29.70;;;;;;;19.49;nan;99105.28;2066673;28;20610;-76
2022/07/23 01:36:20;;;;;;;34.67;30.40;;;;;;;19.46;nan;99101.38;2066077;28;20810;-76
2022/07/23 01:37:20;;;;;;;33.97;30.40;;;;;;;19.43;nan;99099.34;2066605;28;20820;-76
2022/07/23 01:38:24;;;;;;;36.73;30.77;;;;;;;19.43;nan;99110.16;2066484;28;20838;-75
2022/07/23 01:39:25;;;;;;;34.50;30.97;;;;;;;19.42;nan;99108.59;2066454;28;20436;-74
2022/07/23 01:40:28;;;;;;;33.70;30.37;;;;;;;19.41;nan;99106.25;2058507;28;21026;-75
2022/07/23 01:41:30;;;;;;;33.63;30.13;;;;;;;19.40;nan;99110.09;2066508;28;20467;-75
2022/07/23 01:42:32;;;;;;;33.30;30.10;;;;;;;19.40;nan;99110.09;2066815;28;20751;-76
2022/07/23 01:43:33;;;;;;;34.33;30.67;;;;;;;19.38;nan;99112.38;2066484;28;20453;-75
2022/07/23 01:44:35;;;;;;;33.90;30.60;;;;;;;19.38;nan;99105.03;2058370;28;20527;-75
2022/07/23 01:45:35;;;;;;;34.57;30.73;;;;;;;19.38;nan;99112.38;2058448;28;20449;-74
2022/07/23 01:46:39;;;;;;;34.47;30.77;;;;;;;19.37;nan;99108.09;2066408;28;20444;-74
2022/07/23 01:47:40;;;;;;;33.93;30.33;;;;;;;19.37;nan;99102.66;2066401;28;20283;-73
2022/07/23 01:48:42;;;;;;;34.13;30.53;;;;;;;19.38;nan;99107.75;2066385;28;20437;-74
2022/07/23 01:50:10;;;;;;;34.53;30.87;;;;;;;19.36;nan;99109.22;2070150;28;20244;-74
2022/07/23 01:51:30;;;;;;;33.90;30.33;;;;;;;19.33;nan;99105.31;2074412;28;20467;-74
2022/07/23 01:52:37;;;;;;;34.47;30.93;;;;;;;19.31;nan;99107.59;2066454;28;20491;-74
2022/07/23 01:53:40;;;;;;;34.53;31.23;;;;;;;19.30;nan;99111.44;2058287;28;20453;-74
2022/07/23 01:54:40;;;;;;;34.60;31.30;;;;;;;19.26;nan;99115.97;2058529;28;20228;-74
2022/07/23 01:55:46;;;;;;;34.57;31.03;;;;;;;19.26;nan;99109.78;2066367;28;20479;-74
2022/07/23 01:56:48;;;;;;;34.57;30.80;;;;;;;19.24;nan;99115.53;2066926;28;20462;-74
2022/07/23 01:57:51;;;;;;;34.03;30.43;;;;;;;19.24;nan;99114.75;2066363;28;20475;-74
2022/07/23 01:58:55;;;;;;;35.30;31.73;;;;;;;19.22;nan;99109.72;2059353;28;20440;-74
2022/07/23 01:59:57;;;;;;;36.10;31.23;;;;;;;19.21;nan;99113.56;2066735;28;20427;-74
2022/07/23 02:00:58;;;;;;;34.93;31.23;;;;;;;19.19;nan;99102.28;2066312;28;20489;-74
2022/07/23 02:02:00;;;;;;;33.53;30.03;;;;;;;19.17;nan;99107.25;2066312;28;20447;-74
2022/07/23 02:03:01;;;;;;;33.97;30.67;;;;;;;19.15;nan;99099.50;2058348;28;20217;-74
2022/07/23 02:04:03;;;;;;;34.73;31.10;;;;;;;19.16;nan;99103.78;2058398;28;20876;-74
2022/07/23 02:05:05;;;;;;;35.33;31.57;;;;;;;19.14;nan;99100.63;2066384;28;20484;-74
2022/07/23 02:06:07;;;;;;;35.87;32.03;;;;;;;19.14;nan;99108.75;2065773;28;20439;-74
2022/07/23 02:07:08;;;;;;;34.43;30.93;;;;;;;19.10;nan;99107.09;2066482;28;20440;-74
2022/07/23 02:08:09;;;;;;;34.80;31.27;;;;;;;19.10;nan;99099.75;2066224;28;20543;-74
2022/07/23 02:09:12;;;;;;;34.03;30.63;;;;;;;19.06;nan;99101.63;2066347;28;20663;-74
2022/07/23 02:10:14;;;;;;;37.47;31.20;;;;;;;19.07;nan;99096.97;2065903;28;20436;-74
2022/07/23 02:11:16;;;;;;;35.07;31.17;;;;;;;19.04;nan;99101.19;2066223;28;20480;-73
2022/07/23 02:12:18;;;;;;;36.63;31.80;;;;;;;19.02;nan;99111.53;2066185;28;20475;-74
2022/07/23 02:13:19;;;;;;;34.47;30.87;;;;;;;18.99;nan;99106.84;2058261;28;20543;-73
2022/07/23 02:14:20;;;;;;;34.47;31.03;;;;;;;18.98;nan;99115.31;2058170;28;20449;-74
2022/07/23 02:15:21;;;;;;;41.80;30.57;;;;;;;18.96;nan;99112.97;2066116;28;20725;-74
2022/07/23 02:16:23;;;;;;;35.33;31.70;;;;;;;18.90;nan;99114.34;2064936;28;20899;-74
2022/07/23 02:17:25;;;;;;;42.30;31.97;;;;;;;18.86;nan;99114.28;2066093;28;20483;-74
2022/07/23 02:18:28;;;;;;;35.00;31.27;;;;;;;18.83;nan;99114.97;2074373;28;20427;-74
2022/07/23 02:19:30;;;;;;;35.87;32.27;;;;;;;18.80;nan;99115.66;2066454;28;20452;-74
2022/07/23 02:20:32;;;;;;;34.53;30.97;;;;;;;18.72;nan;99107.72;2066248;28;20471;-74
2022/07/23 02:21:32;;;;;;;35.07;31.37;;;;;;;18.74;nan;99113.56;2074558;28;20216;-74
2022/07/23 02:22:34;;;;;;;35.33;31.70;;;;;;;18.70;nan;99112.72;2066171;28;20450;-74
2022/07/23 02:23:35;;;;;;;34.63;31.07;;;;;;;18.68;nan;99118.47;2066258;28;20217;-74
2022/07/23 02:24:40;;;;;;;34.40;30.87;;;;;;;18.67;nan;99119.56;2075184;28;20910;-74
2022/07/23 02:25:41;;;;;;;35.07;31.37;;;;;;;18.65;nan;99113.75;2066090;28;20247;-74
2022/07/23 02:26:43;;;;;;;35.80;32.23;;;;;;;18.63;nan;99116.78;2057618;28;20440;-74
2022/07/23 02:27:44;;;;;;;34.30;30.77;;;;;;;18.62;nan;99115.19;2066309;28;20272;-74
2022/07/23 02:28:45;;;;;;;35.37;30.67;;;;;;;18.63;nan;99116.78;2066140;28;20432;-74
2022/07/23 02:29:46;;;;;;;35.20;31.60;;;;;;;18.62;nan;99120.59;2066170;28;20197;-74
2022/07/23 02:30:50;;;;;;;35.00;31.10;;;;;;;18.60;nan;99122.09;2066297;28;20440;-74
2022/07/23 02:31:51;;;;;;;33.83;30.20;;;;;;;18.57;nan;99122.78;2065996;28;20514;-74
2022/07/23 02:32:53;;;;;;;39.23;30.77;;;;;;;18.53;nan;99111.09;2066305;28;20447;-74
2022/07/23 02:33:53;;;;;;;34.97;31.43;;;;;;;18.54;nan;99124.25;2074813;28;20193;-74
2022/07/23 02:34:55;;;;;;;34.20;30.53;;;;;;;18.48;nan;99114.03;2066142;28;20444;-74
2022/07/23 02:35:56;;;;;;;34.53;30.93;;;;;;;18.44;nan;99118.59;2065548;28;20200;-74
2022/07/23 02:36:58;;;;;;;33.43;30.13;;;;;;;18.42;nan;99112.72;2057999;28;21066;-74
2022/07/23 02:38:02;;;;;;;34.23;30.80;;;;;;;18.37;nan;99113.78;2058309;28;20220;-74
2022/07/23 02:39:06;;;;;;;34.27;30.03;;;;;;;18.34;nan;99120.66;2066039;28;20519;-74
2022/07/23 02:40:13;;;;;;;34.80;31.40;;;;;;;18.29;nan;99122.81;2058588;28;20972;-74
2022/07/23 02:41:16;;;;;;;33.60;30.03;;;;;;;18.28;nan;99115.84;2058814;28;21011;-74
2022/07/23 02:42:18;;;;;;;34.17;30.60;;;;;;;18.28;nan;99118.56;2057929;28;20823;-74
2022/07/23 02:43:19;;;;;;;34.67;30.20;;;;;;;18.27;nan;99119.69;2057588;28;20205;-74
2022/07/23 02:44:23;;;;;;;34.77;31.17;;;;;;;18.26;nan;99118.91;2058019;28;20503;-74
2022/07/23 02:45:27;;;;;;;34.40;30.90;;;;;;;18.25;nan;99121.94;2058919;28;20469;-74
2022/07/23 02:46:29;;;;;;;34.93;31.13;;;;;;;18.22;nan;99122.63;2058035;28;20449;-74
2022/07/23 02:47:34;;;;;;;32.73;29.53;;;;;;;18.21;nan;99123.75;2065943;28;20447;-74
2022/07/23 02:48:35;;;;;;;34.93;30.40;;;;;;;18.19;nan;99121.41;2065913;28;20444;-74
2022/07/23 02:49:37;;;;;;;33.37;29.93;;;;;;;18.20;nan;99124.88;2057864;28;20496;-73
2022/07/23 02:50:40;;;;;;;34.77;30.97;;;;;;;18.19;nan;99123.31;2065947;28;20239;-74
2022/07/23 02:51:43;;;;;;;36.27;29.93;;;;;;;18.18;nan;99119.06;2057539;28;20465;-74
2022/07/23 02:52:45;;;;;;;34.63;31.13;;;;;;;18.23;nan;99124.19;2058250;28;20843;-74
2022/07/23 02:53:47;;;;;;;37.80;30.83;;;;;;;18.25;nan;99132.75;2065898;28;20450;-74
2022/07/23 02:54:48;;;;;;;35.60;30.90;;;;;;;18.26;nan;99131.63;2065870;28;20197;-74
2022/07/23 02:55:53;;;;;;;34.53;30.67;;;;;;;18.25;nan;99138.16;2058080;28;20443;-74
2022/07/23 02:56:55;;;;;;;33.13;29.83;;;;;;;18.23;nan;99124.97;2065890;28;20873;-74
2022/07/23 02:57:57;;;;;;;34.27;30.97;;;;;;;18.22;nan;99119.91;2065899;28;20539;-74
2022/07/23 02:58:59;;;;;;;41.90;29.57;;;;;;;18.24;nan;99125.75;2065913;28;20237;-74
2022/07/23 03:00:01;;;;;;;34.47;30.00;;;;;;;18.22;nan;99128.03;2057837;28;20894;-74
2022/07/23 03:01:01;;;;;;;32.83;29.53;;;;;;;18.21;nan;99129.94;2057868;28;20456;-74
2022/07/23 03:02:03;;;;;;;34.40;30.90;;;;;;;18.25;nan;99127.34;2066055;28;20464;-74
2022/07/23 03:03:04;;;;;;;34.07;30.57;;;;;;;18.23;nan;99124.19;2074615;28;20192;-74
2022/07/23 03:04:06;;;;;;;34.13;30.30;;;;;;;18.21;nan;99127.25;2065932;28;20454;-74
2022/07/23 03:05:07;;;;;;;33.73;30.20;;;;;;;18.24;nan;99131.97;2057773;28;20472;-74
2022/07/23 03:06:10;;;;;;;34.23;29.67;;;;;;;18.22;nan;99128.03;2065687;28;20483;-74
2022/07/23 03:07:14;;;;;;;33.30;29.93;;;;;;;18.17;nan;99125.59;2065962;28;20444;-74
2022/07/23 03:08:16;;;;;;;33.80;30.20;;;;;;;18.16;nan;99124.03;2066189;28;20435;-74
2022/07/23 03:09:21;;;;;;;36.80;31.13;;;;;;;18.13;nan;99124.69;2065934;28;20870;-74
2022/07/23 03:10:22;;;;;;;35.27;31.20;;;;;;;18.11;nan;99124.25;2065873;28;20451;-74
2022/07/23 03:11:25;;;;;;;33.97;30.77;;;;;;;18.08;nan;99120.34;2074543;28;20192;-74
2022/07/23 03:12:29;;;;;;;34.53;30.83;;;;;;;18.07;nan;99126.88;2065643;28;21026;-74
2022/07/23 03:13:30;;;;;;;33.27;29.87;;;;;;;18.03;nan;99121.34;2058017;28;20942;-74
2022/07/23 03:14:32;;;;;;;35.53;31.27;;;;;;;18.01;nan;99115.53;2066072;28;20942;-74
2022/07/23 03:15:33;;;;;;;37.40;30.40;;;;;;;17.99;nan;99122.41;2065674;28;20444;-74
2022/07/23 03:16:35;;;;;;;34.10;30.60;;;;;;;17.96;nan;99120.38;2057741;28;20467;-74
2022/07/23 03:17:36;;;;;;;34.30;30.57;;;;;;;17.95;nan;99119.59;2065992;28;20443;-74
2022/07/23 03:18:38;;;;;;;33.67;30.37;;;;;;;17.92;nan;99116.78;2065744;28;20488;-73
2022/07/23 03:19:41;;;;;;;33.57;30.07;;;;;;;17.94;nan;99123.41;2065781;28;20899;-74
2022/07/23 03:20:45;;;;;;;33.53;30.23;;;;;;;17.93;nan;99126.47;2065686;28;20428;-74
2022/07/23 03:21:46;;;;;;;33.50;30.10;;;;;;;17.93;nan;99123.75;2065076;28;20511;-74
2022/07/23 03:22:48;;;;;;;33.13;29.77;;;;;;;17.91;nan;99121.41;2057741;28;20541;-74
2022/07/23 03:23:50;;;;;;;33.43;29.83;;;;;;;17.89;nan;99114.75;2057774;28;20595;-74
2022/07/23 03:24:57;;;;;;;33.57;30.20;;;;;;;17.90;nan;99117.16;2065713;28;20448;-74
2022/07/23 03:26:00;;;;;;;33.97;30.77;;;;;;;17.92;nan;99122.97;2065665;28;20256;-74
2022/07/23 03:27:05;;;;;;;33.40;30.20;;;;;;;17.91;nan;99113.31;2057840;28;20473;-74
2022/07/23 03:28:06;;;;;;;33.60;30.43;;;;;;;17.94;nan;99117.22;2065931;28;20188;-74
2022/07/23 03:29:08;;;;;;;34.07;30.67;;;;;;;17.95;nan;99114.19;2065987;28;21029;-74
2022/07/23 03:30:09;;;;;;;36.63;30.47;;;;;;;17.95;nan;99108.78;2065645;28;20236;-74
2022/07/23 03:31:11;;;;;;;34.63;31.27;;;;;;;17.97;nan;99111.13;2057704;28;20437;-74
2022/07/23 03:32:13;;;;;;;34.13;30.67;;;;;;;17.99;nan;99103.50;2057768;28;20481;-74
2022/07/23 03:33:17;;;;;;;34.20;30.90;;;;;;;18.00;nan;99108.56;2065575;28;20491;-74
2022/07/23 03:34:20;;;;;;;34.83;31.03;;;;;;;18.03;nan;99110.56;2064712;28;20208;-74
2022/07/23 03:35:21;;;;;;;34.53;31.17;;;;;;;18.05;nan;99112.91;2065848;28;20433;-74
2022/07/23 03:36:42;;;;;;;34.00;30.70;;;;;;;18.04;nan;99112.13;2065270;28;20883;-74
2022/07/23 03:37:42;;;;;;;34.17;30.57;;;;;;;18.07;nan;99110.66;2065522;28;20546;-74
2022/07/23 03:38:45;;;;;;;33.73;30.30;;;;;;;18.06;nan;99107.16;2065548;28;20474;-74
2022/07/23 03:39:46;;;;;;;33.20;29.83;;;;;;;18.12;nan;99117.72;2065531;28;20432;-74
2022/07/23 03:40:50;;;;;;;33.73;30.17;;;;;;;18.11;nan;99111.53;2065540;28;20447;-74
2022/07/23 03:41:51;;;;;;;33.47;30.10;;;;;;;18.08;nan;99107.63;2065507;28;20208;-74
2022/07/23 03:42:54;;;;;;;33.43;30.07;;;;;;;18.10;nan;99115.38;2065586;28;20433;-74
2022/07/23 03:43:54;;;;;;;33.77;30.07;;;;;;;18.11;nan;99108.06;2074494;28;20192;-74
2022/07/23 03:44:56;;;;;;;33.93;30.53;;;;;;;18.12;nan;99115.03;2074376;28;20474;-74
2022/07/23 03:45:56;;;;;;;33.43;30.07;;;;;;;18.12;nan;99110.41;2065473;28;20225;-74
2022/07/23 03:46:58;;;;;;;35.37;31.40;;;;;;;18.14;nan;99120.84;2057455;28;20437;-74
2022/07/23 03:48:00;;;;;;;34.73;31.07;;;;;;;18.13;nan;99113.88;2065469;28;20201;-74
2022/07/23 03:49:02;;;;;;;33.10;30.00;;;;;;;18.14;nan;99115.47;2065854;28;20424;-74
2022/07/23 03:50:03;;;;;;;34.83;31.37;;;;;;;18.14;nan;99110.84;2065490;28;20452;-74
2022/07/23 03:51:05;;;;;;;35.27;30.77;;;;;;;18.15;nan;99115.09;2064950;28;20443;-74
2022/07/23 03:52:06;;;;;;;34.47;30.83;;;;;;;18.16;nan;99113.22;2065518;28;21004;-74
2022/07/23 03:53:07;;;;;;;33.20;30.03;;;;;;;18.18;nan;99113.66;2065482;28;20861;-74
2022/07/23 03:54:10;;;;;;;33.97;30.40;;;;;;;18.23;nan;99113.38;2065674;28;20234;-74
2022/07/23 03:55:13;;;;;;;33.30;29.80;;;;;;;18.24;nan;99109.56;2073983;28;20435;-73
2022/07/23 03:56:14;;;;;;;40.60;31.03;;;;;;;18.28;nan;99118.56;2074200;28;20530;-74
2022/07/23 03:57:15;;;;;;;34.50;31.00;;;;;;;18.30;nan;99117.06;2074288;28;20443;-74
2022/07/23 03:58:17;;;;;;;33.77;30.13;;;;;;;18.31;nan;99113.22;2065444;28;20213;-74
2022/07/23 03:59:19;;;;;;;34.80;31.00;;;;;;;18.34;nan;99114.47;2057504;28;20441;-74
2022/07/23 04:00:19;;;;;;;35.33;30.20;;;;;;;18.35;nan;99111.41;2057382;28;20475;-74
2022/07/23 04:01:27;;;;;;;34.30;30.80;;;;;;;18.37;nan;99108.38;2057449;28;20519;-74
2022/07/23 04:02:28;;;;;;;35.37;31.67;;;;;;;18.39;nan;99111.50;2057622;28;20495;-74
2022/07/23 04:03:29;;;;;;;33.27;30.03;;;;;;;18.42;nan;99110.84;2065682;28;20447;-74
2022/07/23 04:04:30;;;;;;;34.23;30.53;;;;;;;18.43;nan;99104.28;2057436;28;20843;-74
2022/07/23 04:05:32;;;;;;;34.20;30.77;;;;;;;18.47;nan;99107.84;2065347;28;20891;-74
2022/07/23 04:06:40;;;;;;;36.70;31.63;;;;;;;18.49;nan;99102.09;2066045;28;20510;-74
2022/07/23 04:07:43;;;;;;;36.77;29.73;;;;;;;18.50;nan;99099.03;2065355;28;20436;-74
2022/07/23 04:08:47;;;;;;;38.87;31.30;;;;;;;18.56;nan;99102.28;2066097;28;20176;-74
2022/07/23 04:09:49;;;;;;;35.43;30.93;;;;;;;18.55;nan;99101.50;2065330;28;20444;-74
2022/07/23 04:10:50;;;;;;;38.07;31.40;;;;;;;18.60;nan;99105.88;2057346;28;20902;-74
2022/07/23 04:11:51;;;;;;;33.40;30.13;;;;;;;18.59;nan;99098.88;2057180;28;20460;-74
2022/07/23 04:12:52;;;;;;;34.60;31.10;;;;;;;18.63;nan;99100.56;2057450;28;20209;-74
2022/07/23 04:13:55;;;;;;;33.93;30.40;;;;;;;18.61;nan;99102.81;2057385;28;20480;-74
2022/07/23 04:15:00;;;;;;;33.67;30.40;;;;;;;18.66;nan;99106.41;2065560;28;20694;-74
2022/07/23 04:16:03;;;;;;;32.70;29.23;;;;;;;18.66;nan;99101.00;2065150;28;20562;-74
2022/07/23 04:17:04;;;;;;;32.03;28.87;;;;;;;18.67;nan;99102.56;2057417;28;20834;-74
2022/07/23 04:18:06;;;;;;;33.80;30.40;;;;;;;18.69;nan;99103.81;2057351;28;20452;-74
2022/07/23 04:19:19;;;;;;;34.90;31.10;;;;;;;18.72;nan;99105.03;2058970;28;20966;-75
2022/07/23 04:20:30;;;;;;;33.90;30.60;;;;;;;18.74;nan;99111.66;2058735;28;20441;-75
2022/07/23 04:21:34;;;;;;;35.83;31.20;;;;;;;18.74;nan;99100.84;2064874;28;20578;-75
2022/07/23 04:22:37;;;;;;;35.50;30.30;;;;;;;18.77;nan;99107.50;2065254;28;20957;-75
2022/07/23 04:23:38;;;;;;;34.73;30.67;;;;;;;18.81;nan;99102.94;2057593;28;20209;-75
2022/07/23 04:24:41;;;;;;;34.27;30.77;;;;;;;18.83;nan;99106.06;2065207;28;20444;-75
2022/07/23 04:25:43;;;;;;;34.67;30.83;;;;;;;18.86;nan;99108.88;2065401;28;20463;-74
2022/07/23 04:26:44;;;;;;;34.03;30.73;;;;;;;18.88;nan;99113.94;2073573;28;20430;-75
2022/07/23 04:27:45;;;;;;;34.17;30.60;;;;;;;18.89;nan;99102.75;2073400;28;20673;-75
2022/07/23 04:28:47;;;;;;;35.00;31.37;;;;;;;18.90;nan;99103.53;2065475;28;20919;-75
2022/07/23 04:29:49;;;;;;;34.60;31.00;;;;;;;18.92;nan;99101.25;2065207;28;20201;-75
2022/07/23 04:30:51;;;;;;;34.03;30.67;;;;;;;18.93;nan;99109.03;2073735;28;20427;-74
2022/07/23 04:31:53;;;;;;;34.50;30.90;;;;;;;18.97;nan;99094.81;2065321;28;20444;-74
2022/07/23 04:32:53;;;;;;;35.37;30.63;;;;;;;18.99;nan;99090.63;2065150;28;20464;-74
2022/07/23 04:33:59;;;;;;;34.77;31.27;;;;;;;19.03;nan;99088.81;2065747;28;20995;-74
2022/07/23 04:35:03;;;;;;;34.20;30.77;;;;;;;19.04;nan;99087.66;2065253;28;20543;-74
2022/07/23 04:36:09;;;;;;;34.93;31.10;;;;;;;19.08;nan;99088.50;2065420;28;20515;-74
2022/07/23 04:37:10;;;;;;;35.27;31.50;;;;;;;19.09;nan;99095.50;2074008;28;20400;-75
2022/07/23 04:38:12;;;;;;;36.30;31.50;;;;;;;19.11;nan;99090.53;2065207;28;20446;-75
2022/07/23 04:39:13;;;;;;;36.23;32.57;;;;;;;19.17;nan;99102.63;2064810;28;20898;-74
2022/07/23 04:40:16;;;;;;;35.33;31.87;;;;;;;19.19;nan;99096.88;2065193;28;20470;-74
2022/07/23 04:41:17;;;;;;;35.13;31.43;;;;;;;19.22;nan;99098.88;2065192;28;20826;-74
2022/07/23 04:42:19;;;;;;;34.70;30.97;;;;;;;19.26;nan;99096.25;2065422;28;20494;-74
2022/07/23 04:43:20;;;;;;;33.67;30.23;;;;;;;19.31;nan;99098.69;2065169;28;20312;-74
2022/07/23 04:44:24;;;;;;;33.23;29.77;;;;;;;19.36;nan;99101.88;2065178;28;20446;-74
2022/07/23 04:45:27;;;;;;;33.27;29.97;;;;;;;19.40;nan;99097.34;2065392;28;20455;-74
2022/07/23 04:46:28;;;;;;;32.83;29.67;;;;;;;19.43;nan;99093.94;2065185;28;20444;-74
2022/07/23 04:47:30;;;;;;;33.07;30.00;;;;;;;19.48;nan;99087.47;2057251;28;20556;-75
2022/07/23 04:48:35;;;;;;;32.87;29.47;;;;;;;19.55;nan;99087.63;2057284;28;20499;-75
2022/07/23 04:49:44;;;;;;;32.97;29.73;;;;;;;19.61;nan;99083.50;2066677;28;20440;-75
2022/07/23 04:50:45;;;;;;;32.17;28.73;;;;;;;19.68;nan;99093.72;2065168;28;20444;-75
2022/07/23 04:51:52;;;;;;;31.53;28.50;;;;;;;19.69;nan;99085.22;2064899;28;20828;-75
2022/07/23 04:52:53;;;;;;;31.80;28.53;;;;;;;19.75;nan;99094.63;2057059;28;20508;-75
2022/07/23 04:53:54;;;;;;;32.47;29.07;;;;;;;19.81;nan;99097.06;2057093;28;20448;-74
2022/07/23 04:54:55;;;;;;;32.20;28.97;;;;;;;19.85;nan;99095.22;2057178;28;20656;-75
2022/07/23 04:55:57;;;;;;;32.13;28.90;;;;;;;19.88;nan;99097.97;2057174;28;20826;-75